Terminal Aerodrome Forecast
Issued by NWS Houston/Galveston, TX

Home | Current Version | Previous Version | Text Only | Print | Product List | Glossary On
Versions: 1 2 3 4 5 6 7 8 9 10 11 12 13 14 15 16 17 18 19 20 21 22 23 24 25 26 27 28 29 30 31 32 33 34 35 36 37 38 39 40 41 42 43 44 45 46 47 48 49 50
000
FTUS44 KHGX 240520
TAFCLL
TAF
KCLL 240520Z 2406/2506 18010KT 6SM SHRA BR FEW015 BKN045 OVC080
      TEMPO 2406/2410 2SM +TSRA BR SCT007 BKN015CB
     FM241000 16012KT 4SM TSRA BR SCT007 BKN015CB
     FM242100 17012KT 5SM -SHRA BR SCT007 BKN015
     FM250300 16008KT P6SM VCSH BKN050=

USA.gov is the U.S. government's official web portal to all federal, state and local government web resources and services.